Beards Fork, West Virginia
Current Conditions -  °F | °C
As of 4:51 PM on Tuesday 25 Nov 2014 (Local Time) from KBKW Reporting Station
Clear Clear  
Wind Chill:   Ceiling: Unl
Heat Index:   Visibility: 10mi
Dew Point: -6°   Wind: 7mph
Humidity: 36%   Direction: 290°WNW
Pressure: 30.05"   Gusts: NA
Location:  38.096°N, 81.2492°W
Report Text: KBKW 252151Z AUTO 29006KT 10SM CLR 09/M06 A3005 RMK AO2 SLP182 T00891056
Loading
Personal Weather Stations






























Interactive Weather Map New forecast layout! Learn more

10-Day Weather Forecast

Advertisements
Track Severe Weather on mobile